Map

Track Data

SID SEASON NUMBER BASIN SUBBASIN NAME ISO_TIME NATURE LAT LON WMO_WIND WMO_PRES WMO_AGENCY TRACK_TYPE DIST2LAND LANDFALL IFLAG USA_AGENCY USA_ATCF_ID USA_LAT USA_LON USA_RECORD USA_STATUS USA_WIND USA_PRES USA_SSHS USA_R34_NE USA_R34_SE USA_R34_SW USA_R34_NW USA_R50_NE USA_R50_SE USA_R50_SW USA_R50_NW USA_R64_NE USA_R64_SE USA_R64_SW USA_R64_NW USA_POCI USA_ROCI USA_RMW USA_EYE TOKYO_LAT TOKYO_LON TOKYO_GRADE TOKYO_WIND TOKYO_PRES TOKYO_R50_DIR TOKYO_R50_LONG TOKYO_R50_SHORT TOKYO_R30_DIR TOKYO_R30_LONG TOKYO_R30_SHORT TOKYO_LAND CMA_LAT CMA_LON CMA_CAT CMA_WIND CMA_PRES HKO_LAT HKO_LON HKO_CAT HKO_WIND HKO_PRES NEWDELHI_LAT NEWDELHI_LON NEWDELHI_GRADE NEWDELHI_WIND NEWDELHI_PRES NEWDELHI_CI NEWDELHI_DP NEWDELHI_POCI REUNION_LAT REUNION_LON REUNION_TYPE REUNION_WIND REUNION_PRES REUNION_TNUM REUNION_CI REUNION_RMW REUNION_R34_NE REUNION_R34_SE REUNION_R34_SW REUNION_R34_NW REUNION_R50_NE REUNION_R50_SE REUNION_R50_SW REUNION_R50_NW REUNION_R64_NE REUNION_R64_SE REUNION_R64_SW REUNION_R64_NW BOM_LAT BOM_LON BOM_TYPE BOM_WIND BOM_PRES BOM_TNUM BOM_CI BOM_RMW BOM_R34_NE BOM_R34_SE BOM_R34_SW BOM_R34_NW BOM_R50_NE BOM_R50_SE BOM_R50_SW BOM_R50_NW BOM_R64_NE BOM_R64_SE BOM_R64_SW BOM_R64_NW BOM_ROCI BOM_POCI BOM_EYE BOM_POS_METHOD BOM_PRES_METHOD NADI_LAT NADI_LON NADI_CAT NADI_WIND NADI_PRES WELLINGTON_LAT WELLINGTON_LON WELLINGTON_WIND WELLINGTON_PRES DS824_LAT DS824_LON DS824_STAGE DS824_WIND DS824_PRES TD9636_LAT TD9636_LON TD9636_STAGE TD9636_WIND TD9636_PRES TD9635_LAT TD9635_LON TD9635_WIND TD9635_PRES TD9635_ROCI NEUMANN_LAT NEUMANN_LON NEUMANN_CLASS NEUMANN_WIND NEUMANN_PRES MLC_LAT MLC_LON MLC_CLASS MLC_WIND MLC_PRES USA_GUST BOM_GUST BOM_GUST_PER REUNION_GUST REUNION_GUST_PER USA_SEAHGT USA_SEARAD_NE USA_SEARAD_SE USA_SEARAD_SW USA_SEARAD_NW STORM_SPEED STORM_DIR
1933311N10150 1933 73 WP MM NOT_NAMED 1933-11-06 21:00:00 NR 10.0000 150.000 main 1386 1375 __________O___ -1 10.0000 150.000 4 2 136
1933311N10150 1933 73 WP MM NOT_NAMED 1933-11-07 00:00:00 NR 9.93087 150.064 main 1377 1377 __________P___ -1 9.93087 150.064 4 0 0
1933311N10150 1933 73 WP MM NOT_NAMED 1933-11-07 03:00:00 NR 9.98946 150.013 main 1386 1386 __________P___ -1 9.98946 150.013 4 5 318
1933311N10150 1933 73 WP MM NOT_NAMED 1933-11-07 06:00:00 NR 10.3033 149.731 main 1412 1412 __________P___ -1 10.3033 149.731 4 14 318
1933311N10150 1933 73 WP MM NOT_NAMED 1933-11-07 09:00:00 NR 11.0000 149.100 main 1479 1479 __________O___ -1 11.0000 149.100 4 25 318
1933311N10150 1933 73 WP MM NOT_NAMED 1933-11-07 12:00:00 NR 12.1421 148.048 main 1592 1592 __________P___ -1 12.1421 148.048 4 35 317
1933311N10150 1933 73 WP MM NOT_NAMED 1933-11-07 15:00:00 NR 13.5314 146.714 main 1747 1747 __________P___ -1 13.5314 146.714 4 39 316
1933311N10150 1933 73 WP MM NOT_NAMED 1933-11-07 18:00:00 NR 14.9039 145.295 main 1909 1909 __________P___ -1 14.9039 145.295 4 36 313
1933311N10150 1933 73 WP MM NOT_NAMED 1933-11-07 21:00:00 NR 16.0000 144.000 main 2040 1953 __________O___ -1 16.0000 144.000 4 26 305
1933311N10150 1933 73 WP MM NOT_NAMED 1933-11-08 00:00:00 NR 16.4148 143.085 main 1953 1883 __________P___ -1 16.4148 143.085 4 17 289
1933311N10150 1933 73 WP MM NOT_NAMED 1933-11-08 03:00:00 NR 16.5475 142.342 main 1872 1823 __________P___ -1 16.5475 142.342 4 13 277
1933311N10150 1933 73 WP MM NOT_NAMED 1933-11-08 06:00:00 NR 16.5818 141.728 main 1812 1763 __________P___ -1 16.5818 141.728 4 11 278
1933311N10150 1933 73 WP MM NOT_NAMED 1933-11-08 09:00:00 NR 16.7000 141.200 main 1763 1717 __________O___ -1 16.7000 141.200 4 13 300
1933311N10150 1933 73 WP MM NOT_NAMED 1933-11-08 12:00:00 NR 17.2002 140.587 main 1717 1684 __________P___ -1 17.2002 140.587 4 16 315
1933311N10150 1933 73 WP MM NOT_NAMED 1933-11-08 15:00:00 NR 17.8046 140.056 main 1688 1668 __________P___ -1 17.8046 140.056 4 15 324
1933311N10150 1933 73 WP MM NOT_NAMED 1933-11-08 18:00:00 NR 18.4317 139.647 main 1663 1600 __________P___ -1 18.4317 139.647 4 14 332
1933311N10150 1933 73 WP MM NOT_NAMED 1933-11-08 21:00:00 NR 19.0000 139.400 main 1600 1561 __________O___ -1 19.0000 139.400 4 10 347
1933311N10150 1933 73 WP MM NOT_NAMED 1933-11-09 00:00:00 NR 19.4126 139.402 main 1561 1537 __________P___ -1 19.4126 139.402 4 8 11
1933311N10150 1933 73 WP MM NOT_NAMED 1933-11-09 03:00:00 NR 19.7545 139.557 main 1533 1519 __________P___ -1 19.7545 139.557 4 7 28
1933311N10150 1933 73 WP MM NOT_NAMED 1933-11-09 06:00:00 NR 20.0442 139.758 main 1524 1501 __________P___ -1 20.0442 139.758 4 6 31
1933311N10150 1933 73 WP MM NOT_NAMED 1933-11-09 09:00:00 NR 20.3000 139.900 main 1501 1477 __________O___ -1 20.3000 139.900 4 5 9
1933311N10150 1933 73 WP MM NOT_NAMED 1933-11-09 12:00:00 NR 20.5618 139.842 main 1468 1443 __________P___ -1 20.5618 139.842 4 5 340
1933311N10150 1933 73 WP MM NOT_NAMED 1933-11-09 15:00:00 NR 20.7949 139.706 main 1443 1413 __________P___ -1 20.7949 139.706 4 5 326
1933311N10150 1933 73 WP MM NOT_NAMED 1933-11-09 18:00:00 NR 21.0056 139.517 main 1413 1383 __________P___ -1 21.0056 139.517 4 6 317
1933311N10150 1933 73 WP MM NOT_NAMED 1933-11-09 21:00:00 NR 21.2000 139.300 main 1383 1353 __________O___ -1 21.2000 139.300 4 5 316
1933311N10150 1933 73 WP MM NOT_NAMED 1933-11-10 00:00:00 NR 21.3973 139.117 main 1353 1323 __________P___ -1 21.3973 139.117 4 5 316
1933311N10150 1933 73 WP MM NOT_NAMED 1933-11-10 03:00:00 NR 21.5797 138.910 main 1323 1302 __________P___ -1 21.5797 138.910 4 5 310
1933311N10150 1933 73 WP MM NOT_NAMED 1933-11-10 06:00:00 NR 21.7472 138.673 main 1302 1267 __________P___ -1 21.7472 138.673 4 6 304
1933311N10150 1933 73 WP MM NOT_NAMED 1933-11-10 09:00:00 NR 21.9000 138.400 main 1267 1232 __________O___ -1 21.9000 138.400 4 6 299
1933311N10150 1933 73 WP MM NOT_NAMED 1933-11-10 12:00:00 NR 22.0641 138.066 main 1232 1201 __________P___ -1 22.0641 138.066 4 7 296
1933311N10150 1933 73 WP MM NOT_NAMED 1933-11-10 15:00:00 NR 22.2105 137.701 main 1201 1176 __________P___ -1 22.2105 137.701 4 7 291
1933311N10150 1933 73 WP MM NOT_NAMED 1933-11-10 18:00:00 NR 22.3266 137.335 main 1171 1145 __________P___ -1 22.3266 137.335 4 7 286
1933311N10150 1933 73 WP MM NOT_NAMED 1933-11-10 21:00:00 NR 22.4000 137.000 main 1145 1129 __________O___ -1 22.4000 137.000 4 6 282
1933311N10150 1933 73 WP MM NOT_NAMED 1933-11-11 00:00:00 NR 22.4505 136.682 main 1119 1104 __________P___ -1 22.4505 136.682 4 6 276
1933311N10150 1933 73 WP MM NOT_NAMED 1933-11-11 03:00:00 NR 22.4549 136.407 main 1104 1104 __________P___ -1 22.4549 136.407 4 4 264
1933311N10150 1933 73 WP MM NOT_NAMED 1933-11-11 06:00:00 NR 22.4068 136.204 main 1104 1099 __________P___ -1 22.4068 136.204 4 3 241
1933311N10150 1933 73 WP MM NOT_NAMED 1933-11-11 09:00:00 NR 22.3000 136.100 main 1109 1109 __________O___ -1 22.3000 136.100 4 3 197
1933311N10150 1933 73 WP MM NOT_NAMED 1933-11-11 12:00:00 NR 22.1364 136.121 main 1129 1129 __________P___ -1 22.1364 136.121 4 4 161
1933311N10150 1933 73 WP MM NOT_NAMED 1933-11-11 15:00:00 NR 21.9174 136.238 main 1153 1153 __________P___ -1 21.9174 136.238 4 5 150
1933311N10150 1933 73 WP MM NOT_NAMED 1933-11-11 18:00:00 NR 21.6647 136.411 main 1183 1183 __________P___ -1 21.6647 136.411 4 6 147
1933311N10150 1933 73 WP MM NOT_NAMED 1933-11-11 21:00:00 NR 21.4000 136.600 main 1222 1222 __________O___ -1 21.4000 136.600 4 6 145
1933311N10150 1933 73 WP MM NOT_NAMED 1933-11-12 00:00:00 NR 21.1492 136.804 main 1261 1261 __________P___ -1 21.1492 136.804 4 6 143
1933311N10150 1933 73 WP MM NOT_NAMED 1933-11-12 03:00:00 NR 20.8926 137.006 main 1291 1291 __________P___ -1 20.8926 137.006 4 6 147
1933311N10150 1933 73 WP MM NOT_NAMED 1933-11-12 06:00:00 NR 20.6396 137.154 main 1330 1330 __________P___ -1 20.6396 137.154 4 5 160
1933311N10150 1933 73 WP MM NOT_NAMED 1933-11-12 09:00:00 NR 20.4000 137.200 main 1350 1350 __________O___ -1 20.4000 137.200 4 5 187
1933311N10150 1933 73 WP MM NOT_NAMED 1933-11-12 12:00:00 NR 20.1248 137.082 main 1375 1370 __________P___ -1 20.1248 137.082 4 6 211
1933311N10150 1933 73 WP MM NOT_NAMED 1933-11-12 15:00:00 NR 19.8727 136.861 main 1386 1382 __________P___ -1 19.8727 136.861 4 6 227
1933311N10150 1933 73 WP MM NOT_NAMED 1933-11-12 18:00:00 NR 19.6843 136.585 main 1393 1389 __________P___ -1 19.6843 136.585 4 6 243
1933311N10150 1933 73 WP MM NOT_NAMED 1933-11-12 21:00:00 NR 19.6000 136.300 main 1391 1373 __________O___ -1 19.6000 136.300 4 5 268
1933311N10150 1933 73 WP MM NOT_NAMED 1933-11-13 00:00:00 NR 19.6710 136.092 main 1373 1355 __________P___ -1 19.6710 136.092 4 5 302
1933311N10150 1933 73 WP MM NOT_NAMED 1933-11-13 03:00:00 NR 19.8446 135.881 main 1355 1316 __________P___ -1 19.8446 135.881 4 6 314
1933311N10150 1933 73 WP MM NOT_NAMED 1933-11-13 06:00:00 NR 20.0710 135.654 main 1316 1284 __________P___ -1 20.0710 135.654 4 6 315
1933311N10150 1933 73 WP MM NOT_NAMED 1933-11-13 09:00:00 NR 20.3000 135.400 main 1284 1263 __________O___ -1 20.3000 135.400 4 7 304
1933311N10150 1933 73 WP MM NOT_NAMED 1933-11-13 12:00:00 NR 20.4455 135.055 main 1263 1228 __________P___ -1 20.4455 135.055 4 7 293
1933311N10150 1933 73 WP MM NOT_NAMED 1933-11-13 15:00:00 NR 20.5857 134.690 main 1228 1208 __________P___ -1 20.5857 134.690 4 7 294
1933311N10150 1933 73 WP MM NOT_NAMED 1933-11-13 18:00:00 NR 20.7330 134.355 main 1208 1178 __________P___ -1 20.7330 134.355 4 6 300
1933311N10150 1933 73 WP MM NOT_NAMED 1933-11-13 21:00:00 NR 20.9000 134.100 main 1178 1150 __________O___ -1 20.9000 134.100 4 6 311
1933311N10150 1933 73 WP MM NOT_NAMED 1933-11-14 00:00:00 NR 21.0945 133.912 main 1150 1126 __________P___ -1 21.0945 133.912 4 5 327
1933311N10150 1933 73 WP MM NOT_NAMED 1933-11-14 03:00:00 NR 21.3113 133.819 main 1126 1104 __________P___ -1 21.3113 133.819 4 5 351
1933311N10150 1933 73 WP MM NOT_NAMED 1933-11-14 06:00:00 NR 21.5474 133.841 main 1104 1078 __________P___ -1 21.5474 133.841 4 5 19
1933311N10150 1933 73 WP MM NOT_NAMED 1933-11-14 09:00:00 NR 21.8000 134.000 main 1078 1063 __________O___ -1 21.8000 134.000 4 6 42
1933311N10150 1933 73 WP MM NOT_NAMED 1933-11-14 12:00:00 NR 22.0246 134.306 main 1066 1049 __________P___ -1 22.0246 134.306 4 8 56
1933311N10150 1933 73 WP MM NOT_NAMED 1933-11-14 15:00:00 NR 22.2683 134.743 main 1049 1044 __________P___ -1 22.2683 134.743 4 10 59
1933311N10150 1933 73 WP MM NOT_NAMED 1933-11-14 18:00:00 NR 22.5527 135.259 main 1042 1030 __________P___ -1 22.5527 135.259 4 12 57
1933311N10150 1933 73 WP MM NOT_NAMED 1933-11-14 21:00:00 NR 22.9000 135.800 main 1035 1016 __________O___ -1 22.9000 135.800 4 12 51
1933311N10150 1933 73 WP MM NOT_NAMED 1933-11-15 00:00:00 NR 23.3191 136.294 main 1022 1000 __________P___ -1 23.3191 136.294 4 13 45
1933311N10150 1933 73 WP MM NOT_NAMED 1933-11-15 03:00:00 NR 23.8026 136.800 main 1000 979 __________P___ -1 23.8026 136.800 4 14 42
1933311N10150 1933 73 WP MM NOT_NAMED 1933-11-15 06:00:00 NR 24.3347 137.307 main 981 958 __________P___ -1 24.3347 137.307 4 14 40
1933311N10150 1933 73 WP MM NOT_NAMED 1933-11-15 09:00:00 NR 24.9000 137.800 main 958 920 __________O___ -1 24.9000 137.800 4 13 35
1933311N10150 1933 73 WP MM NOT_NAMED 1933-11-15 12:00:00 NR 25.4266 138.155 main 922 865 __________P___ -1 25.4266 138.155 4 13 31
1933311N10150 1933 73 WP MM NOT_NAMED 1933-11-15 15:00:00 NR 25.9883 138.511 main 865 815 __________P___ -1 25.9883 138.511 4 14 32
1933311N10150 1933 73 WP MM NOT_NAMED 1933-11-15 18:00:00 NR 26.6061 138.961 main 818 771 __________P___ -1 26.6061 138.961 4 16 37
1933311N10150 1933 73 WP MM NOT_NAMED 1933-11-15 21:00:00 NR 27.3000 139.600 main 771 739 __________O___ -1 27.3000 139.600 4 19 42
1933311N10150 1933 73 WP MM NOT_NAMED 1933-11-16 00:00:00 NR 28.0428 140.421 main 745 688 __________P___ -1 28.0428 140.421 4 23 47
1933311N10150 1933 73 WP MM NOT_NAMED 1933-11-16 03:00:00 NR 28.8595 141.463 main 684 636 __________P___ -1 28.8595 141.463 4 27 50
1933311N10150 1933 73 WP MM NOT_NAMED 1933-11-16 06:00:00 NR 29.7468 142.747 main 636 614 __________P___ -1 29.7468 142.747 4 31 53
1933311N10150 1933 73 WP MM NOT_NAMED 1933-11-16 09:00:00 NR 30.7000 144.300 main 619 615 __________O___ -1 30.7000 144.300 4 35 56
1933311N10150 1933 73 WP MM NOT_NAMED 1933-11-16 12:00:00 NR 31.7093 146.138 main 655 654 __________P___ -1 31.7093 146.138 4 39 58
1933311N10150 1933 73 WP MM NOT_NAMED 1933-11-16 15:00:00 NR 32.7487 148.224 main 748 748 __________P___ -1 32.7487 148.224 4 42 60
1933311N10150 1933 73 WP MM NOT_NAMED 1933-11-16 18:00:00 NR 33.7883 150.500 main 900 900 __________P___ -1 33.7883 150.500 4 44 62
1933311N10150 1933 73 WP MM NOT_NAMED 1933-11-16 21:00:00 NR 34.8000 152.900 main 1087 __________O___ -1 34.8000 152.900 4 44 63

Digital Typhoon Data and Search

About IBTrACS Database

This database is a web-friendly format of International Best Track Archive for Climate Stewardship (IBTrACS), a global best track data archive curated by NOAA dating back to 1842.

Updated: 2021-11-26